sensor_id;sensor_type;location;lat;lon;timestamp;P1;durP1;ratioP1;P2;durP2;ratioP2
44048;SDS011;29717;47.028;15.470;2023-07-09T00:02:15;8.70;;;6.25;;
44048;SDS011;29717;47.028;15.470;2023-07-09T00:04:44;6.32;;;5.53;;
44048;SDS011;29717;47.028;15.470;2023-07-09T00:07:13;6.95;;;6.25;;
44048;SDS011;29717;47.028;15.470;2023-07-09T00:09:41;7.85;;;6.45;;
44048;SDS011;29717;47.028;15.470;2023-07-09T00:12:09;7.45;;;5.93;;
44048;SDS011;29717;47.028;15.470;2023-07-09T00:14:37;7.18;;;6.45;;
44048;SDS011;29717;47.028;15.470;2023-07-09T00:17:05;7.15;;;6.45;;
44048;SDS011;29717;47.028;15.470;2023-07-09T00:19:34;7.00;;;6.32;;
44048;SDS011;29717;47.028;15.470;2023-07-09T00:22:02;7.18;;;6.18;;
44048;SDS011;29717;47.028;15.470;2023-07-09T00:24:29;7.22;;;6.22;;
44048;SDS011;29717;47.028;15.470;2023-07-09T00:26:56;6.95;;;6.18;;
44048;SDS011;29717;47.028;15.470;2023-07-09T00:29:23;9.68;;;5.85;;
44048;SDS011;29717;47.028;15.470;2023-07-09T00:31:50;8.52;;;6.43;;
44048;SDS011;29717;47.028;15.470;2023-07-09T00:34:16;7.13;;;6.38;;
44048;SDS011;29717;47.028;15.470;2023-07-09T00:36:46;7.00;;;6.30;;
44048;SDS011;29717;47.028;15.470;2023-07-09T00:39:17;6.75;;;5.97;;
44048;SDS011;29717;47.028;15.470;2023-07-09T00:41:44;7.90;;;6.65;;
44048;SDS011;29717;47.028;15.470;2023-07-09T00:44:20;7.10;;;6.20;;
44048;SDS011;29717;47.028;15.470;2023-07-09T00:49:36;6.25;;;5.55;;
44048;SDS011;29717;47.028;15.470;2023-07-09T00:52:13;7.70;;;6.10;;
44048;SDS011;29717;47.028;15.470;2023-07-09T00:54:44;7.47;;;6.32;;
44048;SDS011;29717;47.028;15.470;2023-07-09T00:57:13;8.25;;;6.47;;
44048;SDS011;29717;47.028;15.470;2023-07-09T00:59:42;9.55;;;6.72;;
44048;SDS011;29717;47.028;15.470;2023-07-09T01:02:09;7.00;;;6.10;;
44048;SDS011;29717;47.028;15.470;2023-07-09T01:04:36;7.43;;;6.10;;
44048;SDS011;29717;47.028;15.470;2023-07-09T01:07:04;6.03;;;5.47;;
44048;SDS011;29717;47.028;15.470;2023-07-09T01:09:31;7.15;;;6.22;;
44048;SDS011;29717;47.028;15.470;2023-07-09T01:12:02;7.78;;;6.05;;
44048;SDS011;29717;47.028;15.470;2023-07-09T01:14:30;7.90;;;6.20;;
44048;SDS011;29717;47.028;15.470;2023-07-09T01:16:58;8.02;;;5.97;;
44048;SDS011;29717;47.028;15.470;2023-07-09T01:19:27;10.73;;;6.38;;
44048;SDS011;29717;47.028;15.470;2023-07-09T01:21:57;7.95;;;6.20;;
44048;SDS011;29717;47.028;15.470;2023-07-09T01:27:09;6.20;;;5.60;;
44048;SDS011;29717;47.028;15.470;2023-07-09T01:29:36;8.85;;;6.20;;
44048;SDS011;29717;47.028;15.470;2023-07-09T01:32:03;7.68;;;6.78;;
44048;SDS011;29717;47.028;15.470;2023-07-09T01:34:31;7.93;;;6.20;;
44048;SDS011;29717;47.028;15.470;2023-07-09T01:37:00;8.73;;;5.95;;
44048;SDS011;29717;47.028;15.470;2023-07-09T01:39:26;7.30;;;6.28;;
44048;SDS011;29717;47.028;15.470;2023-07-09T01:41:54;7.72;;;6.80;;
44048;SDS011;29717;47.028;15.470;2023-07-09T01:44:22;8.52;;;6.63;;
44048;SDS011;29717;47.028;15.470;2023-07-09T01:46:49;8.95;;;6.60;;
44048;SDS011;29717;47.028;15.470;2023-07-09T01:49:16;8.45;;;6.53;;
44048;SDS011;29717;47.028;15.470;2023-07-09T01:51:43;8.52;;;6.78;;
44048;SDS011;29717;47.028;15.470;2023-07-09T01:54:13;6.68;;;6.05;;
44048;SDS011;29717;47.028;15.470;2023-07-09T01:56:41;6.88;;;6.28;;
44048;SDS011;29717;47.028;15.470;2023-07-09T01:59:08;7.93;;;6.65;;
44048;SDS011;29717;47.028;15.470;2023-07-09T02:01:36;7.20;;;6.47;;
44048;SDS011;29717;47.028;15.470;2023-07-09T02:04:03;6.63;;;6.00;;
44048;SDS011;29717;47.028;15.470;2023-07-09T02:06:30;8.05;;;6.60;;
44048;SDS011;29717;47.028;15.470;2023-07-09T02:08:57;7.60;;;6.70;;
44048;SDS011;29717;47.028;15.470;2023-07-09T02:11:25;7.72;;;6.10;;
44048;SDS011;29717;47.028;15.470;2023-07-09T02:13:52;7.13;;;6.15;;
44048;SDS011;29717;47.028;15.470;2023-07-09T02:16:19;6.78;;;6.05;;
44048;SDS011;29717;47.028;15.470;2023-07-09T02:18:46;7.35;;;6.43;;
44048;SDS011;29717;47.028;15.470;2023-07-09T02:21:12;8.23;;;6.00;;
44048;SDS011;29717;47.028;15.470;2023-07-09T02:23:39;6.65;;;5.95;;
44048;SDS011;29717;47.028;15.470;2023-07-09T02:26:06;7.90;;;6.22;;
44048;SDS011;29717;47.028;15.470;2023-07-09T02:28:34;9.63;;;6.80;;
44048;SDS011;29717;47.028;15.470;2023-07-09T02:31:00;7.10;;;6.50;;
44048;SDS011;29717;47.028;15.470;2023-07-09T02:33:27;9.93;;;6.00;;
44048;SDS011;29717;47.028;15.470;2023-07-09T02:35:58;10.25;;;6.40;;
44048;SDS011;29717;47.028;15.470;2023-07-09T02:38:24;7.47;;;6.45;;
44048;SDS011;29717;47.028;15.470;2023-07-09T02:40:51;7.50;;;6.68;;
44048;SDS011;29717;47.028;15.470;2023-07-09T02:43:18;9.05;;;6.50;;
44048;SDS011;29717;47.028;15.470;2023-07-09T02:45:46;7.20;;;6.50;;
44048;SDS011;29717;47.028;15.470;2023-07-09T02:48:13;8.10;;;6.07;;
44048;SDS011;29717;47.028;15.470;2023-07-09T02:50:40;7.57;;;6.53;;
44048;SDS011;29717;47.028;15.470;2023-07-09T02:53:06;8.88;;;6.78;;
44048;SDS011;29717;47.028;15.470;2023-07-09T02:55:33;8.20;;;6.88;;
44048;SDS011;29717;47.028;15.470;2023-07-09T02:58:00;8.65;;;6.90;;
44048;SDS011;29717;47.028;15.470;2023-07-09T03:00:27;9.80;;;6.45;;
44048;SDS011;29717;47.028;15.470;2023-07-09T03:02:55;8.35;;;6.63;;
44048;SDS011;29717;47.028;15.470;2023-07-09T03:05:21;9.55;;;6.35;;
44048;SDS011;29717;47.028;15.470;2023-07-09T03:07:48;7.15;;;6.45;;
44048;SDS011;29717;47.028;15.470;2023-07-09T03:10:15;7.28;;;6.50;;
44048;SDS011;29717;47.028;15.470;2023-07-09T03:12:42;11.35;;;6.85;;
44048;SDS011;29717;47.028;15.470;2023-07-09T03:15:09;8.32;;;6.53;;
44048;SDS011;29717;47.028;15.470;2023-07-09T03:17:36;7.88;;;6.22;;
44048;SDS011;29717;47.028;15.470;2023-07-09T03:20:05;8.77;;;6.53;;
44048;SDS011;29717;47.028;15.470;2023-07-09T03:22:33;9.20;;;5.88;;
44048;SDS011;29717;47.028;15.470;2023-07-09T03:24:59;8.50;;;6.60;;
44048;SDS011;29717;47.028;15.470;2023-07-09T03:27:26;9.52;;;6.30;;
44048;SDS011;29717;47.028;15.470;2023-07-09T03:29:52;8.95;;;6.93;;
44048;SDS011;29717;47.028;15.470;2023-07-09T03:32:19;7.38;;;6.65;;
44048;SDS011;29717;47.028;15.470;2023-07-09T03:34:46;7.85;;;6.80;;
44048;SDS011;29717;47.028;15.470;2023-07-09T03:37:14;8.90;;;6.80;;
44048;SDS011;29717;47.028;15.470;2023-07-09T03:39:41;7.50;;;6.22;;
44048;SDS011;29717;47.028;15.470;2023-07-09T03:42:07;9.20;;;6.93;;
44048;SDS011;29717;47.028;15.470;2023-07-09T03:44:34;8.35;;;6.43;;
44048;SDS011;29717;47.028;15.470;2023-07-09T03:47:01;8.90;;;6.53;;
44048;SDS011;29717;47.028;15.470;2023-07-09T03:49:28;7.53;;;6.60;;
44048;SDS011;29717;47.028;15.470;2023-07-09T03:51:54;7.35;;;6.18;;
44048;SDS011;29717;47.028;15.470;2023-07-09T03:54:23;8.82;;;6.85;;
44048;SDS011;29717;47.028;15.470;2023-07-09T03:56:49;7.18;;;6.47;;
44048;SDS011;29717;47.028;15.470;2023-07-09T03:59:16;7.65;;;6.68;;
44048;SDS011;29717;47.028;15.470;2023-07-09T04:01:42;11.57;;;6.90;;
44048;SDS011;29717;47.028;15.470;2023-07-09T04:04:11;8.88;;;6.82;;
44048;SDS011;29717;47.028;15.470;2023-07-09T04:06:38;7.82;;;6.43;;
44048;SDS011;29717;47.028;15.470;2023-07-09T04:09:04;8.05;;;6.63;;
44048;SDS011;29717;47.028;15.470;2023-07-09T04:11:32;8.18;;;6.60;;
44048;SDS011;29717;47.028;15.470;2023-07-09T04:13:59;7.63;;;6.43;;
44048;SDS011;29717;47.028;15.470;2023-07-09T04:16:26;8.38;;;6.88;;
44048;SDS011;29717;47.028;15.470;2023-07-09T04:18:52;9.68;;;6.85;;
44048;SDS011;29717;47.028;15.470;2023-07-09T04:21:19;8.00;;;6.55;;
44048;SDS011;29717;47.028;15.470;2023-07-09T04:23:46;7.30;;;6.60;;
44048;SDS011;29717;47.028;15.470;2023-07-09T04:26:13;9.25;;;6.10;;
44048;SDS011;29717;47.028;15.470;2023-07-09T04:28:41;9.40;;;6.75;;
44048;SDS011;29717;47.028;15.470;2023-07-09T04:31:09;8.55;;;7.45;;
44048;SDS011;29717;47.028;15.470;2023-07-09T04:33:36;10.52;;;6.72;;
44048;SDS011;29717;47.028;15.470;2023-07-09T04:36:03;7.93;;;7.10;;
44048;SDS011;29717;47.028;15.470;2023-07-09T04:38:31;10.20;;;6.47;;
44048;SDS011;29717;47.028;15.470;2023-07-09T04:40:58;13.43;;;6.80;;
44048;SDS011;29717;47.028;15.470;2023-07-09T04:43:25;9.73;;;6.65;;
44048;SDS011;29717;47.028;15.470;2023-07-09T04:45:53;8.25;;;6.53;;
44048;SDS011;29717;47.028;15.470;2023-07-09T04:48:20;10.48;;;6.72;;
44048;SDS011;29717;47.028;15.470;2023-07-09T04:50:46;8.40;;;7.03;;
44048;SDS011;29717;47.028;15.470;2023-07-09T04:53:15;8.02;;;6.78;;
44048;SDS011;29717;47.028;15.470;2023-07-09T04:55:42;7.65;;;6.88;;
44048;SDS011;29717;47.028;15.470;2023-07-09T04:58:09;9.85;;;6.57;;
44048;SDS011;29717;47.028;15.470;2023-07-09T05:00:35;9.40;;;6.78;;
44048;SDS011;29717;47.028;15.470;2023-07-09T05:03:05;8.45;;;6.40;;
44048;SDS011;29717;47.028;15.470;2023-07-09T05:05:31;8.50;;;6.93;;
44048;SDS011;29717;47.028;15.470;2023-07-09T05:07:58;8.02;;;6.85;;
44048;SDS011;29717;47.028;15.470;2023-07-09T05:10:25;9.30;;;6.65;;
44048;SDS011;29717;47.028;15.470;2023-07-09T05:12:53;7.40;;;6.70;;
44048;SDS011;29717;47.028;15.470;2023-07-09T05:15:21;7.30;;;6.60;;
44048;SDS011;29717;47.028;15.470;2023-07-09T05:17:47;8.38;;;6.65;;
44048;SDS011;29717;47.028;15.470;2023-07-09T05:20:16;10.70;;;7.20;;
44048;SDS011;29717;47.028;15.470;2023-07-09T05:22:42;9.15;;;6.82;;
44048;SDS011;29717;47.028;15.470;2023-07-09T05:25:09;8.85;;;6.90;;
44048;SDS011;29717;47.028;15.470;2023-07-09T05:27:36;10.88;;;6.72;;
44048;SDS011;29717;47.028;15.470;2023-07-09T05:30:03;7.90;;;7.03;;
44048;SDS011;29717;47.028;15.470;2023-07-09T05:32:29;8.35;;;7.28;;
44048;SDS011;29717;47.028;15.470;2023-07-09T05:34:56;7.78;;;6.97;;
44048;SDS011;29717;47.028;15.470;2023-07-09T05:37:24;9.48;;;6.95;;
44048;SDS011;29717;47.028;15.470;2023-07-09T05:39:51;7.72;;;6.80;;
44048;SDS011;29717;47.028;15.470;2023-07-09T05:42:17;9.80;;;7.28;;
44048;SDS011;29717;47.028;15.470;2023-07-09T05:44:44;8.48;;;7.47;;
44048;SDS011;29717;47.028;15.470;2023-07-09T05:47:11;14.18;;;7.30;;
44048;SDS011;29717;47.028;15.470;2023-07-09T05:49:37;8.52;;;6.97;;
44048;SDS011;29717;47.028;15.470;2023-07-09T05:52:05;9.45;;;7.20;;
44048;SDS011;29717;47.028;15.470;2023-07-09T05:54:33;9.50;;;7.45;;
44048;SDS011;29717;47.028;15.470;2023-07-09T05:57:00;10.00;;;7.22;;
44048;SDS011;29717;47.028;15.470;2023-07-09T05:59:26;8.63;;;7.07;;
44048;SDS011;29717;47.028;15.470;2023-07-09T06:01:53;8.93;;;6.82;;
44048;SDS011;29717;47.028;15.470;2023-07-09T06:04:20;8.75;;;6.60;;
44048;SDS011;29717;47.028;15.470;2023-07-09T06:06:46;8.05;;;7.25;;
44048;SDS011;29717;47.028;15.470;2023-07-09T06:09:13;7.53;;;6.78;;
44048;SDS011;29717;47.028;15.470;2023-07-09T06:11:42;9.07;;;6.43;;
44048;SDS011;29717;47.028;15.470;2023-07-09T06:14:09;7.60;;;6.40;;
44048;SDS011;29717;47.028;15.470;2023-07-09T06:16:35;7.15;;;6.45;;
44048;SDS011;29717;47.028;15.470;2023-07-09T06:19:02;8.68;;;6.47;;
44048;SDS011;29717;47.028;15.470;2023-07-09T06:21:29;8.18;;;6.95;;
44048;SDS011;29717;47.028;15.470;2023-07-09T06:23:55;8.90;;;6.88;;
44048;SDS011;29717;47.028;15.470;2023-07-09T06:26:22;7.82;;;6.20;;
44048;SDS011;29717;47.028;15.470;2023-07-09T06:28:51;6.95;;;6.25;;
44048;SDS011;29717;47.028;15.470;2023-07-09T06:31:17;8.35;;;6.75;;
44048;SDS011;29717;47.028;15.470;2023-07-09T06:33:46;7.22;;;6.18;;
44048;SDS011;29717;47.028;15.470;2023-07-09T06:36:13;6.68;;;6.03;;
44048;SDS011;29717;47.028;15.470;2023-07-09T06:38:40;7.65;;;6.47;;
44048;SDS011;29717;47.028;15.470;2023-07-09T06:41:07;7.60;;;6.47;;
44048;SDS011;29717;47.028;15.470;2023-07-09T06:43:34;6.60;;;5.90;;
44048;SDS011;29717;47.028;15.470;2023-07-09T06:46:05;11.70;;;6.68;;
44048;SDS011;29717;47.028;15.470;2023-07-09T06:48:32;7.68;;;5.82;;
44048;SDS011;29717;47.028;15.470;2023-07-09T06:50:59;9.35;;;6.03;;
44048;SDS011;29717;47.028;15.470;2023-07-09T06:53:27;8.02;;;6.10;;
44048;SDS011;29717;47.028;15.470;2023-07-09T06:55:54;8.00;;;6.38;;
44048;SDS011;29717;47.028;15.470;2023-07-09T06:58:24;7.55;;;6.13;;
44048;SDS011;29717;47.028;15.470;2023-07-09T07:00:52;8.20;;;6.28;;
44048;SDS011;29717;47.028;15.470;2023-07-09T07:03:21;6.50;;;5.90;;
44048;SDS011;29717;47.028;15.470;2023-07-09T07:05:49;7.15;;;5.95;;
44048;SDS011;29717;47.028;15.470;2023-07-09T07:08:16;7.35;;;5.47;;
44048;SDS011;29717;47.028;15.470;2023-07-09T07:10:43;7.35;;;5.78;;
44048;SDS011;29717;47.028;15.470;2023-07-09T07:13:10;5.93;;;5.43;;
44048;SDS011;29717;47.028;15.470;2023-07-09T07:15:37;6.82;;;6.13;;
44048;SDS011;29717;47.028;15.470;2023-07-09T07:18:04;6.72;;;5.75;;
44048;SDS011;29717;47.028;15.470;2023-07-09T07:20:33;8.05;;;5.82;;
44048;SDS011;29717;47.028;15.470;2023-07-09T07:23:00;6.13;;;5.43;;
44048;SDS011;29717;47.028;15.470;2023-07-09T07:25:26;6.20;;;5.57;;
44048;SDS011;29717;47.028;15.470;2023-07-09T07:27:53;9.65;;;6.20;;
44048;SDS011;29717;47.028;15.470;2023-07-09T07:30:20;5.88;;;5.28;;
44048;SDS011;29717;47.028;15.470;2023-07-09T07:32:47;6.03;;;5.53;;
44048;SDS011;29717;47.028;15.470;2023-07-09T07:35:14;6.22;;;5.63;;
44048;SDS011;29717;47.028;15.470;2023-07-09T07:37:42;6.28;;;5.68;;
44048;SDS011;29717;47.028;15.470;2023-07-09T07:40:09;6.50;;;5.35;;
44048;SDS011;29717;47.028;15.470;2023-07-09T07:42:36;6.75;;;6.00;;
44048;SDS011;29717;47.028;15.470;2023-07-09T07:45:03;7.10;;;5.47;;
44048;SDS011;29717;47.028;15.470;2023-07-09T07:47:32;7.00;;;5.53;;
44048;SDS011;29717;47.028;15.470;2023-07-09T07:49:59;6.43;;;5.82;;
44048;SDS011;29717;47.028;15.470;2023-07-09T07:52:27;6.60;;;5.03;;
44048;SDS011;29717;47.028;15.470;2023-07-09T07:54:55;8.25;;;5.15;;
44048;SDS011;29717;47.028;15.470;2023-07-09T07:57:23;6.45;;;5.28;;
44048;SDS011;29717;47.028;15.470;2023-07-09T07:59:51;7.50;;;5.70;;
44048;SDS011;29717;47.028;15.470;2023-07-09T08:02:17;6.22;;;5.53;;
44048;SDS011;29717;47.028;15.470;2023-07-09T08:04:44;5.97;;;5.22;;
44048;SDS011;29717;47.028;15.470;2023-07-09T08:07:11;8.93;;;5.30;;
44048;SDS011;29717;47.028;15.470;2023-07-09T08:09:37;8.40;;;4.50;;
44048;SDS011;29717;47.028;15.470;2023-07-09T08:12:06;8.48;;;5.68;;
44048;SDS011;29717;47.028;15.470;2023-07-09T08:14:37;5.63;;;5.10;;
44048;SDS011;29717;47.028;15.470;2023-07-09T08:17:04;7.05;;;5.25;;
44048;SDS011;29717;47.028;15.470;2023-07-09T08:19:31;6.13;;;5.10;;
44048;SDS011;29717;47.028;15.470;2023-07-09T08:21:57;7.45;;;5.05;;
44048;SDS011;29717;47.028;15.470;2023-07-09T08:24:24;6.30;;;5.70;;
44048;SDS011;29717;47.028;15.470;2023-07-09T08:26:50;5.60;;;4.90;;
44048;SDS011;29717;47.028;15.470;2023-07-09T08:29:19;4.97;;;4.45;;
44048;SDS011;29717;47.028;15.470;2023-07-09T08:31:45;6.40;;;5.05;;
44048;SDS011;29717;47.028;15.470;2023-07-09T08:34:12;5.18;;;4.70;;
44048;SDS011;29717;47.028;15.470;2023-07-09T08:36:39;6.88;;;5.22;;
44048;SDS011;29717;47.028;15.470;2023-07-09T08:39:06;8.20;;;5.15;;
44048;SDS011;29717;47.028;15.470;2023-07-09T08:41:35;6.68;;;5.15;;
44048;SDS011;29717;47.028;15.470;2023-07-09T08:44:06;8.43;;;5.55;;
44048;SDS011;29717;47.028;15.470;2023-07-09T08:46:37;6.05;;;4.93;;
44048;SDS011;29717;47.028;15.470;2023-07-09T08:49:12;9.02;;;5.25;;
44048;SDS011;29717;47.028;15.470;2023-07-09T08:51:41;9.98;;;5.20;;
44048;SDS011;29717;47.028;15.470;2023-07-09T08:54:09;5.03;;;4.53;;
44048;SDS011;29717;47.028;15.470;2023-07-09T08:56:38;6.05;;;5.38;;
44048;SDS011;29717;47.028;15.470;2023-07-09T08:59:04;5.75;;;5.15;;
44048;SDS011;29717;47.028;15.470;2023-07-09T09:01:34;6.68;;;5.18;;
44048;SDS011;29717;47.028;15.470;2023-07-09T09:04:05;8.20;;;5.10;;
44048;SDS011;29717;47.028;15.470;2023-07-09T09:06:34;5.32;;;4.45;;
44048;SDS011;29717;47.028;15.470;2023-07-09T09:09:02;5.75;;;5.25;;
44048;SDS011;29717;47.028;15.470;2023-07-09T09:11:33;5.63;;;5.13;;
44048;SDS011;29717;47.028;15.470;2023-07-09T09:14:05;5.57;;;5.07;;
44048;SDS011;29717;47.028;15.470;2023-07-09T09:16:35;9.73;;;5.13;;
44048;SDS011;29717;47.028;15.470;2023-07-09T09:19:01;7.93;;;4.95;;
44048;SDS011;29717;47.028;15.470;2023-07-09T09:21:31;5.43;;;4.90;;
44048;SDS011;29717;47.028;15.470;2023-07-09T09:24:02;5.40;;;4.90;;
44048;SDS011;29717;47.028;15.470;2023-07-09T09:26:35;13.75;;;5.70;;
44048;SDS011;29717;47.028;15.470;2023-07-09T09:29:07;7.43;;;4.85;;
44048;SDS011;29717;47.028;15.470;2023-07-09T09:31:36;6.25;;;4.80;;
44048;SDS011;29717;47.028;15.470;2023-07-09T09:34:03;5.18;;;4.70;;
44048;SDS011;29717;47.028;15.470;2023-07-09T09:36:31;5.30;;;4.80;;
44048;SDS011;29717;47.028;15.470;2023-07-09T09:39:02;5.10;;;4.70;;
44048;SDS011;29717;47.028;15.470;2023-07-09T09:41:30;5.40;;;4.90;;
44048;SDS011;29717;47.028;15.470;2023-07-09T09:43:57;5.05;;;4.65;;
44048;SDS011;29717;47.028;15.470;2023-07-09T09:46:24;4.57;;;4.18;;
44048;SDS011;29717;47.028;15.470;2023-07-09T09:48:54;6.60;;;3.88;;
44048;SDS011;29717;47.028;15.470;2023-07-09T09:51:22;4.57;;;4.18;;
44048;SDS011;29717;47.028;15.470;2023-07-09T09:53:51;6.13;;;4.40;;
44048;SDS011;29717;47.028;15.470;2023-07-09T09:56:19;5.15;;;4.65;;
44048;SDS011;29717;47.028;15.470;2023-07-09T09:58:51;5.80;;;4.43;;
44048;SDS011;29717;47.028;15.470;2023-07-09T10:01:18;4.47;;;4.07;;
44048;SDS011;29717;47.028;15.470;2023-07-09T10:03:47;5.25;;;4.47;;
44048;SDS011;29717;47.028;15.470;2023-07-09T10:06:15;4.75;;;4.35;;
44048;SDS011;29717;47.028;15.470;2023-07-09T10:08:46;4.55;;;4.13;;
44048;SDS011;29717;47.028;15.470;2023-07-09T10:11:21;5.65;;;4.40;;
44048;SDS011;29717;47.028;15.470;2023-07-09T10:13:51;4.18;;;3.88;;
44048;SDS011;29717;47.028;15.470;2023-07-09T10:16:24;4.72;;;4.07;;
44048;SDS011;29717;47.028;15.470;2023-07-09T10:18:56;7.88;;;3.65;;
44048;SDS011;29717;47.028;15.470;2023-07-09T10:21:27;4.03;;;3.60;;
44048;SDS011;29717;47.028;15.470;2023-07-09T10:24:02;5.25;;;4.00;;
44048;SDS011;29717;47.028;15.470;2023-07-09T10:26:36;5.28;;;4.10;;
44048;SDS011;29717;47.028;15.470;2023-07-09T10:29:14;4.10;;;3.63;;
44048;SDS011;29717;47.028;15.470;2023-07-09T10:31:44;5.32;;;3.60;;
44048;SDS011;29717;47.028;15.470;2023-07-09T10:34:17;4.47;;;3.88;;
44048;SDS011;29717;47.028;15.470;2023-07-09T10:36:47;4.32;;;3.80;;
44048;SDS011;29717;47.028;15.470;2023-07-09T10:39:16;4.60;;;3.90;;
44048;SDS011;29717;47.028;15.470;2023-07-09T10:41:46;5.13;;;4.00;;
44048;SDS011;29717;47.028;15.470;2023-07-09T10:44:15;4.30;;;3.80;;
44048;SDS011;29717;47.028;15.470;2023-07-09T10:46:43;4.50;;;4.10;;
44048;SDS011;29717;47.028;15.470;2023-07-09T10:49:13;4.20;;;3.80;;
44048;SDS011;29717;47.028;15.470;2023-07-09T10:51:41;4.03;;;3.63;;
44048;SDS011;29717;47.028;15.470;2023-07-09T10:54:12;4.78;;;3.58;;
44048;SDS011;29717;47.028;15.470;2023-07-09T10:56:41;4.45;;;4.05;;
44048;SDS011;29717;47.028;15.470;2023-07-09T10:59:14;4.00;;;3.60;;
44048;SDS011;29717;47.028;15.470;2023-07-09T11:01:43;4.40;;;4.00;;
44048;SDS011;29717;47.028;15.470;2023-07-09T11:04:18;4.32;;;3.70;;
44048;SDS011;29717;47.028;15.470;2023-07-09T11:06:48;3.83;;;3.53;;
44048;SDS011;29717;47.028;15.470;2023-07-09T11:09:18;3.80;;;3.50;;
44048;SDS011;29717;47.028;15.470;2023-07-09T11:11:49;5.18;;;3.70;;
44048;SDS011;29717;47.028;15.470;2023-07-09T11:14:23;5.60;;;4.18;;
44048;SDS011;29717;47.028;15.470;2023-07-09T11:16:52;4.50;;;3.67;;
44048;SDS011;29717;47.028;15.470;2023-07-09T11:19:19;6.35;;;4.00;;
44048;SDS011;29717;47.028;15.470;2023-07-09T11:21:57;4.85;;;4.22;;
44048;SDS011;29717;47.028;15.470;2023-07-09T11:24:29;4.72;;;4.05;;
44048;SDS011;29717;47.028;15.470;2023-07-09T11:26:56;4.35;;;3.80;;
44048;SDS011;29717;47.028;15.470;2023-07-09T11:29:26;4.45;;;4.05;;
44048;SDS011;29717;47.028;15.470;2023-07-09T11:31:54;4.18;;;3.88;;
44048;SDS011;29717;47.028;15.470;2023-07-09T11:34:27;3.90;;;3.60;;
44048;SDS011;29717;47.028;15.470;2023-07-09T11:36:56;4.68;;;3.90;;
44048;SDS011;29717;47.028;15.470;2023-07-09T11:39:27;4.32;;;3.92;;
44048;SDS011;29717;47.028;15.470;2023-07-09T11:41:54;4.00;;;3.70;;
44048;SDS011;29717;47.028;15.470;2023-07-09T11:44:26;4.05;;;3.58;;
44048;SDS011;29717;47.028;15.470;2023-07-09T11:47:16;4.03;;;3.65;;
44048;SDS011;29717;47.028;15.470;2023-07-09T11:49:46;4.15;;;3.40;;
44048;SDS011;29717;47.028;15.470;2023-07-09T11:52:14;4.00;;;3.60;;
44048;SDS011;29717;47.028;15.470;2023-07-09T11:54:44;4.15;;;3.75;;
44048;SDS011;29717;47.028;15.470;2023-07-09T11:57:12;3.88;;;3.50;;
44048;SDS011;29717;47.028;15.470;2023-07-09T11:59:40;4.82;;;3.33;;
44048;SDS011;29717;47.028;15.470;2023-07-09T12:02:09;4.03;;;3.65;;
44048;SDS011;29717;47.028;15.470;2023-07-09T12:04:41;5.43;;;3.90;;
44048;SDS011;29717;47.028;15.470;2023-07-09T12:07:09;4.18;;;3.70;;
44048;SDS011;29717;47.028;15.470;2023-07-09T12:09:39;6.80;;;3.90;;
44048;SDS011;29717;47.028;15.470;2023-07-09T12:12:16;5.57;;;3.70;;
44048;SDS011;29717;47.028;15.470;2023-07-09T12:14:44;6.10;;;3.90;;
44048;SDS011;29717;47.028;15.470;2023-07-09T12:17:10;6.15;;;4.07;;
44048;SDS011;29717;47.028;15.470;2023-07-09T12:19:37;4.35;;;3.95;;
44048;SDS011;29717;47.028;15.470;2023-07-09T12:22:09;6.43;;;4.22;;
44048;SDS011;29717;47.028;15.470;2023-07-09T12:24:36;4.43;;;4.03;;
44048;SDS011;29717;47.028;15.470;2023-07-09T12:27:14;4.43;;;3.92;;
44048;SDS011;29717;47.028;15.470;2023-07-09T12:29:43;4.50;;;4.10;;
44048;SDS011;29717;47.028;15.470;2023-07-09T12:32:11;5.05;;;3.85;;
44048;SDS011;29717;47.028;15.470;2023-07-09T12:34:38;4.90;;;4.40;;
44048;SDS011;29717;47.028;15.470;2023-07-09T12:37:05;6.88;;;4.45;;
44048;SDS011;29717;47.028;15.470;2023-07-09T12:39:33;5.65;;;4.20;;
44048;SDS011;29717;47.028;15.470;2023-07-09T12:42:00;5.13;;;4.28;;
44048;SDS011;29717;47.028;15.470;2023-07-09T12:44:29;7.05;;;4.50;;
44048;SDS011;29717;47.028;15.470;2023-07-09T12:46:56;4.80;;;4.30;;
44048;SDS011;29717;47.028;15.470;2023-07-09T12:49:24;4.80;;;4.30;;
44048;SDS011;29717;47.028;15.470;2023-07-09T12:51:53;7.28;;;4.82;;
44048;SDS011;29717;47.028;15.470;2023-07-09T12:54:20;5.00;;;4.28;;
44048;SDS011;29717;47.028;15.470;2023-07-09T12:56:51;4.82;;;4.30;;
44048;SDS011;29717;47.028;15.470;2023-07-09T12:59:19;6.07;;;4.50;;
44048;SDS011;29717;47.028;15.470;2023-07-09T13:01:49;5.55;;;4.07;;
44048;SDS011;29717;47.028;15.470;2023-07-09T13:04:17;9.75;;;4.72;;
44048;SDS011;29717;47.028;15.470;2023-07-09T13:06:44;4.78;;;4.28;;
44048;SDS011;29717;47.028;15.470;2023-07-09T13:09:13;5.20;;;4.53;;
44048;SDS011;29717;47.028;15.470;2023-07-09T13:11:41;5.20;;;4.30;;
44048;SDS011;29717;47.028;15.470;2023-07-09T13:14:15;4.60;;;4.20;;
44048;SDS011;29717;47.028;15.470;2023-07-09T13:16:42;4.75;;;4.00;;
44048;SDS011;29717;47.028;15.470;2023-07-09T13:19:09;8.05;;;4.47;;
44048;SDS011;29717;47.028;15.470;2023-07-09T13:21:36;6.05;;;3.90;;
44048;SDS011;29717;47.028;15.470;2023-07-09T13:24:04;8.90;;;4.95;;
44048;SDS011;29717;47.028;15.470;2023-07-09T13:26:38;4.75;;;4.22;;
44048;SDS011;29717;47.028;15.470;2023-07-09T13:29:07;5.85;;;4.47;;
44048;SDS011;29717;47.028;15.470;2023-07-09T13:31:38;5.63;;;4.15;;
44048;SDS011;29717;47.028;15.470;2023-07-09T13:34:08;6.53;;;4.22;;
44048;SDS011;29717;47.028;15.470;2023-07-09T13:36:40;6.20;;;4.75;;
44048;SDS011;29717;47.028;15.470;2023-07-09T13:39:07;5.50;;;4.60;;
44048;SDS011;29717;47.028;15.470;2023-07-09T13:41:34;6.30;;;5.03;;
44048;SDS011;29717;47.028;15.470;2023-07-09T13:44:01;5.00;;;4.10;;
44048;SDS011;29717;47.028;15.470;2023-07-09T13:46:29;6.75;;;4.45;;
44048;SDS011;29717;47.028;15.470;2023-07-09T13:48:57;4.85;;;4.45;;
44048;SDS011;29717;47.028;15.470;2023-07-09T13:51:24;5.70;;;4.65;;
44048;SDS011;29717;47.028;15.470;2023-07-09T13:53:51;4.85;;;4.10;;
44048;SDS011;29717;47.028;15.470;2023-07-09T13:56:19;5.22;;;4.72;;
44048;SDS011;29717;47.028;15.470;2023-07-09T13:58:46;6.63;;;4.93;;
44048;SDS011;29717;47.028;15.470;2023-07-09T14:01:13;6.38;;;4.72;;
44048;SDS011;29717;47.028;15.470;2023-07-09T14:03:40;5.75;;;4.55;;
44048;SDS011;29717;47.028;15.470;2023-07-09T14:06:09;5.88;;;4.72;;
44048;SDS011;29717;47.028;15.470;2023-07-09T14:08:38;5.10;;;4.63;;
44048;SDS011;29717;47.028;15.470;2023-07-09T14:11:08;6.35;;;4.93;;
44048;SDS011;29717;47.028;15.470;2023-07-09T14:13:36;5.78;;;4.28;;
44048;SDS011;29717;47.028;15.470;2023-07-09T14:16:04;5.20;;;4.18;;
44048;SDS011;29717;47.028;15.470;2023-07-09T14:18:30;4.50;;;4.10;;
44048;SDS011;29717;47.028;15.470;2023-07-09T14:20:57;6.22;;;4.85;;
44048;SDS011;29717;47.028;15.470;2023-07-09T14:23:26;5.10;;;4.60;;
44048;SDS011;29717;47.028;15.470;2023-07-09T14:25:52;5.53;;;4.95;;
44048;SDS011;29717;47.028;15.470;2023-07-09T14:28:20;4.93;;;4.50;;
44048;SDS011;29717;47.028;15.470;2023-07-09T14:30:48;5.55;;;5.00;;
44048;SDS011;29717;47.028;15.470;2023-07-09T14:33:16;5.97;;;4.70;;
44048;SDS011;29717;47.028;15.470;2023-07-09T14:35:43;7.93;;;4.80;;
44048;SDS011;29717;47.028;15.470;2023-07-09T14:38:15;7.28;;;4.82;;
44048;SDS011;29717;47.028;15.470;2023-07-09T14:40:44;5.18;;;4.68;;
44048;SDS011;29717;47.028;15.470;2023-07-09T14:43:11;4.85;;;4.35;;
44048;SDS011;29717;47.028;15.470;2023-07-09T14:45:38;10.60;;;5.40;;